createdAt,value
2023-03-06T00:02:54.699Z,410.00
2023-03-06T00:06:54.637Z,407.00
2023-03-06T00:10:54.665Z,404.00
2023-03-06T00:14:54.631Z,401.00
2023-03-06T00:18:54.707Z,401.00
2023-03-06T00:22:54.708Z,406.00
2023-03-06T00:26:54.681Z,407.00
2023-03-06T00:30:54.721Z,403.00
2023-03-06T00:34:54.731Z,403.00
2023-03-06T00:38:54.710Z,402.00
2023-03-06T00:42:54.784Z,402.00
2023-03-06T00:46:54.788Z,403.00
2023-03-06T00:50:54.785Z,405.00
2023-03-06T00:54:54.815Z,407.00
2023-03-06T00:58:54.850Z,408.00
2023-03-06T01:02:54.827Z,402.00
2023-03-06T01:06:54.802Z,401.00
2023-03-06T01:10:54.773Z,403.00
2023-03-06T01:14:54.834Z,404.00
2023-03-06T01:18:54.786Z,408.00
2023-03-06T01:22:54.826Z,406.00
2023-03-06T01:26:54.812Z,410.00
2023-03-06T01:30:54.915Z,408.00
2023-03-06T01:34:54.822Z,405.00
2023-03-06T01:38:54.847Z,406.00
2023-03-06T01:42:54.982Z,405.00
2023-03-06T01:46:54.839Z,406.00
2023-03-06T01:50:54.877Z,402.00
2023-03-06T01:54:54.955Z,399.00
2023-03-06T01:58:54.970Z,396.00
2023-03-06T02:02:55.175Z,394.00
2023-03-06T02:06:54.955Z,391.00
2023-03-06T02:10:54.973Z,392.00
2023-03-06T02:14:54.998Z,391.00
2023-03-06T02:18:55.008Z,393.00
2023-03-06T02:22:54.997Z,390.00
2023-03-06T02:26:55.019Z,386.00
2023-03-06T02:30:55.152Z,388.00
2023-03-06T02:34:55.121Z,393.00
2023-03-06T02:38:55.102Z,393.00
2023-03-06T02:42:55.151Z,391.00
2023-03-06T02:46:55.134Z,389.00
2023-03-06T02:50:55.157Z,390.00
2023-03-06T02:54:55.150Z,392.00
2023-03-06T02:58:55.189Z,394.00
2023-03-06T03:02:55.187Z,394.00
2023-03-06T03:06:55.183Z,395.00
2023-03-06T03:10:55.292Z,394.00
2023-03-06T03:14:55.248Z,390.00
2023-03-06T03:18:55.265Z,392.00
2023-03-06T03:22:55.328Z,395.00
2023-03-06T03:26:55.308Z,391.00
2023-03-06T03:30:55.335Z,393.00
2023-03-06T03:34:55.328Z,400.00
2023-03-06T03:38:55.305Z,396.00
2023-03-06T03:42:55.412Z,392.00
2023-03-06T03:46:55.341Z,390.00
2023-03-06T03:50:55.375Z,390.00
2023-03-06T03:54:55.387Z,387.00
2023-03-06T03:58:55.416Z,390.00
2023-03-06T04:02:55.433Z,387.00
2023-03-06T04:06:55.440Z,386.00
2023-03-06T04:10:55.517Z,389.00
2023-03-06T04:14:55.498Z,386.00
2023-03-06T04:18:55.525Z,383.00
2023-03-06T04:22:55.535Z,382.00
2023-03-06T04:26:55.592Z,385.00
2023-03-06T04:30:55.599Z,386.00
2023-03-06T04:34:55.675Z,386.00
2023-03-06T04:38:55.751Z,387.00
2023-03-06T04:42:55.789Z,392.00
2023-03-06T04:46:55.822Z,388.00
2023-03-06T04:50:55.897Z,392.00
2023-03-06T04:54:55.964Z,388.00
2023-03-06T04:58:55.998Z,395.00
2023-03-06T05:02:56.042Z,394.00
2023-03-06T05:06:56.257Z,400.00
2023-03-06T05:10:56.188Z,416.00
2023-03-06T05:14:56.241Z,422.00
2023-03-06T05:18:56.767Z,428.00
2023-03-06T05:22:56.328Z,438.00
2023-03-06T05:26:56.427Z,447.00
2023-03-06T05:30:56.543Z,456.00
2023-03-06T05:34:56.553Z,458.00
2023-03-06T05:38:56.608Z,448.00
2023-03-06T05:42:56.689Z,448.00
2023-03-06T05:46:56.742Z,450.00
2023-03-06T05:50:56.778Z,453.00
2023-03-06T05:54:56.816Z,451.00
2023-03-06T05:58:56.849Z,449.00
2023-03-06T06:02:56.871Z,450.00
2023-03-06T06:06:56.922Z,447.00
2023-03-06T06:10:57.025Z,445.00
2023-03-06T06:14:56.997Z,447.00
2023-03-06T06:18:56.967Z,455.00
2023-03-06T06:22:57.009Z,459.00
2023-03-06T06:26:57.013Z,456.00
2023-03-06T06:30:57.079Z,455.00
2023-03-06T06:34:56.966Z,504.00
2023-03-06T06:38:57.297Z,565.00
2023-03-06T06:42:57.156Z,683.00
2023-03-06T06:47:26.320Z,706.00
2023-03-06T06:50:58.125Z,800.00
2023-03-06T06:54:57.105Z,842.00
2023-03-06T06:59:03.896Z,878.00
2023-03-06T07:02:58.156Z,911.00
2023-03-06T07:06:57.182Z,932.00
2023-03-06T07:10:57.101Z,940.00
2023-03-06T07:14:57.106Z,961.00
2023-03-06T07:18:57.192Z,969.00
2023-03-06T07:22:57.114Z,997.00
2023-03-06T07:26:57.129Z,1028.00
2023-03-06T07:30:57.166Z,1044.00
2023-03-06T07:35:17.155Z,1053.00
2023-03-06T07:38:58.259Z,1025.00
2023-03-06T07:43:09.160Z,1058.00
2023-03-06T07:46:58.244Z,1019.00
2023-03-06T07:50:57.181Z,1054.00
2023-03-06T07:54:57.091Z,1098.00
2023-03-06T07:58:57.320Z,1080.00
2023-03-06T08:02:57.168Z,1077.00
2023-03-06T08:06:57.086Z,1105.00
2023-03-06T08:10:57.101Z,1111.00
2023-03-06T08:14:57.037Z,1102.00
2023-03-06T08:18:56.947Z,1090.00
2023-03-06T08:22:56.908Z,1098.00
2023-03-06T08:26:56.912Z,1098.00
2023-03-06T08:30:56.928Z,1112.00
2023-03-06T08:34:56.846Z,1184.00
2023-03-06T08:38:56.783Z,821.00
2023-03-06T08:42:56.783Z,809.00
2023-03-06T08:46:56.859Z,835.00
2023-03-06T08:50:56.822Z,847.00
2023-03-06T08:54:56.958Z,859.00
2023-03-06T08:58:56.961Z,847.00
2023-03-06T09:02:56.923Z,839.00
2023-03-06T09:06:56.864Z,834.00
2023-03-06T09:10:56.845Z,845.00
2023-03-06T09:14:56.808Z,846.00
2023-03-06T09:18:56.730Z,832.00
2023-03-06T09:22:56.695Z,874.00
2023-03-06T09:26:56.723Z,874.00
2023-03-06T09:30:56.650Z,857.00
2023-03-06T09:34:56.597Z,735.00
2023-03-06T09:38:56.672Z,669.00
2023-03-06T09:42:56.850Z,650.00
2023-03-06T09:46:56.738Z,682.00
2023-03-06T09:50:58.774Z,701.00
2023-03-06T09:54:56.880Z,727.00
2023-03-06T09:58:57.174Z,743.00
2023-03-06T10:02:57.529Z,743.00
2023-03-06T10:06:57.470Z,759.00
2023-03-06T10:10:57.650Z,776.00
2023-03-06T10:14:57.776Z,785.00
2023-03-06T10:18:59.180Z,799.00
2023-03-06T10:23:01.312Z,809.00
2023-03-06T10:26:59.002Z,819.00
2023-03-06T10:30:57.785Z,842.00
2023-03-06T10:34:57.773Z,892.00
2023-03-06T10:38:57.690Z,940.00
2023-03-06T10:43:10.782Z,982.00
2023-03-06T10:46:58.664Z,1004.00
2023-03-06T10:50:58.646Z,1014.00
2023-03-06T10:54:57.793Z,1016.00
2023-03-06T10:58:57.726Z,1012.00
2023-03-06T11:02:57.714Z,1009.00
2023-03-06T11:06:57.640Z,1015.00
2023-03-06T11:11:05.456Z,1034.00
2023-03-06T11:14:57.598Z,1033.00
2023-03-06T11:18:57.520Z,1033.00
2023-03-06T11:22:57.472Z,1044.00
2023-03-06T11:26:57.689Z,960.00
2023-03-06T11:30:57.597Z,899.00
2023-03-06T11:34:57.694Z,850.00
2023-03-06T11:38:57.592Z,815.00
2023-03-06T11:42:57.486Z,758.00
2023-03-06T11:46:57.525Z,725.00
2023-03-06T11:50:57.436Z,698.00
2023-03-06T11:54:57.391Z,673.00
2023-03-06T11:58:57.389Z,646.00
2023-03-06T12:02:57.352Z,633.00
2023-03-06T12:06:57.343Z,617.00
2023-03-06T12:10:57.268Z,600.00
2023-03-06T12:14:57.221Z,587.00
2023-03-06T12:18:57.166Z,582.00
2023-03-06T12:23:14.428Z,585.00
2023-03-06T12:26:58.096Z,588.00
2023-03-06T12:30:57.016Z,586.00
2023-03-06T12:34:56.986Z,585.00
2023-03-06T12:38:56.978Z,590.00
2023-03-06T12:42:57.019Z,584.00
2023-03-06T12:46:57.098Z,586.00
2023-03-06T12:50:57.101Z,584.00
2023-03-06T12:54:57.141Z,582.00
2023-03-06T12:58:57.156Z,581.00
2023-03-06T13:02:57.144Z,574.00
2023-03-06T13:06:57.501Z,622.00
2023-03-06T13:10:57.132Z,693.00
2023-03-06T13:14:57.141Z,704.00
2023-03-06T13:18:57.219Z,704.00
2023-03-06T13:22:57.286Z,706.00
2023-03-06T13:26:57.369Z,696.00
2023-03-06T13:30:57.390Z,694.00
2023-03-06T13:34:57.582Z,696.00
2023-03-06T13:38:57.603Z,692.00
2023-03-06T13:42:57.662Z,682.00
2023-03-06T13:46:57.693Z,683.00
2023-03-06T13:50:57.833Z,678.00
2023-03-06T13:54:58.064Z,681.00
2023-03-06T13:58:57.995Z,694.00
2023-03-06T14:02:58.033Z,708.00
2023-03-06T14:06:57.974Z,699.00
2023-03-06T14:10:57.969Z,707.00
2023-03-06T14:14:57.979Z,697.00
2023-03-06T14:18:58.089Z,697.00
2023-03-06T14:22:58.137Z,692.00
2023-03-06T14:26:58.262Z,681.00
2023-03-06T14:30:58.393Z,680.00
2023-03-06T14:34:58.444Z,681.00
2023-03-06T14:38:58.537Z,687.00
2023-03-06T14:42:59.000Z,704.00
2023-03-06T14:46:58.631Z,699.00
2023-03-06T14:50:58.620Z,676.00
2023-03-06T14:54:58.626Z,642.00
2023-03-06T14:58:58.654Z,623.00
2023-03-06T15:02:58.677Z,602.00
2023-03-06T15:06:58.671Z,592.00
2023-03-06T15:10:58.679Z,580.00
2023-03-06T15:14:58.709Z,570.00
2023-03-06T15:18:58.816Z,559.00
2023-03-06T15:22:58.813Z,548.00
2023-03-06T15:26:58.879Z,538.00
2023-03-06T15:30:58.918Z,540.00
2023-03-06T15:34:58.941Z,533.00
2023-03-06T15:38:58.977Z,531.00
2023-03-06T15:42:59.005Z,532.00
2023-03-06T15:47:08.452Z,529.00
2023-03-06T15:51:00.019Z,534.00
2023-03-06T15:54:58.937Z,540.00
2023-03-06T15:58:58.896Z,537.00
2023-03-06T16:02:58.931Z,542.00
2023-03-06T16:06:58.810Z,545.00
2023-03-06T16:10:58.773Z,547.00
2023-03-06T16:14:58.767Z,542.00
2023-03-06T16:18:58.795Z,540.00
2023-03-06T16:22:58.872Z,538.00
2023-03-06T16:26:58.934Z,539.00
2023-03-06T16:30:59.067Z,540.00
2023-03-06T16:34:59.064Z,538.00
2023-03-06T16:38:59.153Z,530.00
2023-03-06T16:42:59.195Z,532.00
2023-03-06T16:46:59.298Z,528.00
2023-03-06T16:50:59.400Z,523.00
2023-03-06T16:54:59.450Z,529.00
2023-03-06T16:58:59.526Z,527.00
2023-03-06T17:02:59.658Z,525.00
2023-03-06T17:06:59.799Z,522.00
2023-03-06T17:10:59.968Z,518.00
2023-03-06T17:15:00.121Z,522.00
2023-03-06T17:19:00.230Z,516.00
2023-03-06T17:23:00.348Z,517.00
2023-03-06T17:27:00.482Z,518.00
2023-03-06T17:31:00.641Z,517.00
2023-03-06T17:35:00.732Z,514.00
2023-03-06T17:39:00.895Z,518.00
2023-03-06T17:43:01.036Z,517.00
2023-03-06T17:47:01.171Z,513.00
2023-03-06T17:51:01.342Z,513.00
2023-03-06T17:55:01.494Z,514.00
2023-03-06T17:59:01.605Z,508.00
2023-03-06T18:03:02.068Z,507.00
2023-03-06T18:07:02.013Z,507.00
2023-03-06T18:11:02.223Z,505.00
2023-03-06T18:15:02.437Z,508.00
2023-03-06T18:19:02.587Z,501.00
2023-03-06T18:23:02.795Z,509.00
2023-03-06T18:27:02.964Z,507.00
2023-03-06T18:31:03.178Z,505.00
2023-03-06T18:35:03.460Z,502.00
2023-03-06T18:39:04.248Z,502.00
2023-03-06T18:43:03.803Z,499.00
2023-03-06T18:47:03.787Z,502.00
2023-03-06T18:51:03.744Z,502.00
2023-03-06T18:55:03.673Z,500.00
2023-03-06T18:59:03.661Z,501.00
2023-03-06T19:03:03.596Z,501.00
2023-03-06T19:07:03.541Z,496.00
2023-03-06T19:11:03.596Z,489.00
2023-03-06T19:15:03.495Z,486.00
2023-03-06T19:19:03.493Z,480.00
2023-03-06T19:23:03.443Z,481.00
2023-03-06T19:27:03.436Z,478.00
2023-03-06T19:31:03.419Z,483.00
2023-03-06T19:35:03.426Z,486.00
2023-03-06T19:39:03.334Z,485.00
2023-03-06T19:43:03.279Z,484.00
2023-03-06T19:47:03.346Z,486.00
2023-03-06T19:51:03.201Z,486.00
2023-03-06T19:55:03.167Z,479.00
2023-03-06T19:59:03.156Z,478.00
2023-03-06T20:03:03.199Z,481.00
2023-03-06T20:07:03.158Z,481.00
2023-03-06T20:11:03.138Z,478.00
2023-03-06T20:15:03.099Z,474.00
2023-03-06T20:19:03.081Z,478.00
2023-03-06T20:23:02.994Z,477.00
2023-03-06T20:27:02.967Z,479.00
2023-03-06T20:31:02.944Z,483.00
2023-03-06T20:35:02.876Z,484.00
2023-03-06T20:39:02.837Z,483.00
2023-03-06T20:43:02.830Z,479.00
2023-03-06T20:47:03.067Z,476.00
2023-03-06T20:51:03.010Z,479.00
2023-03-06T20:55:02.930Z,474.00
2023-03-06T20:59:02.943Z,474.00
2023-03-06T21:03:02.862Z,480.00
2023-03-06T21:07:02.792Z,473.00
2023-03-06T21:11:02.786Z,475.00
2023-03-06T21:15:02.735Z,478.00
2023-03-06T21:19:02.760Z,484.00
2023-03-06T21:23:02.693Z,486.00
2023-03-06T21:27:02.660Z,487.00
2023-03-06T21:31:02.844Z,485.00
2023-03-06T21:35:02.713Z,484.00
2023-03-06T21:39:02.652Z,486.00
2023-03-06T21:43:02.635Z,484.00
2023-03-06T21:47:02.649Z,486.00
2023-03-06T21:51:02.554Z,487.00
2023-03-06T21:55:02.539Z,484.00
2023-03-06T21:59:02.503Z,484.00
2023-03-06T22:03:02.417Z,484.00
2023-03-06T22:07:02.416Z,487.00
2023-03-06T22:11:02.371Z,487.00
2023-03-06T22:15:02.363Z,484.00
2023-03-06T22:19:02.388Z,487.00
2023-03-06T22:23:02.304Z,486.00
2023-03-06T22:27:02.259Z,484.00
2023-03-06T22:31:02.223Z,480.00
2023-03-06T22:35:02.201Z,482.00
2023-03-06T22:39:02.159Z,482.00
2023-03-06T22:43:02.097Z,487.00
2023-03-06T22:47:02.035Z,489.00
2023-03-06T22:51:02.137Z,485.00
2023-03-06T22:55:02.072Z,487.00
2023-03-06T22:59:02.018Z,487.00
2023-03-06T23:03:02.007Z,488.00
2023-03-06T23:07:01.969Z,486.00
2023-03-06T23:11:01.904Z,488.00
2023-03-06T23:15:01.967Z,489.00
2023-03-06T23:19:01.856Z,484.00
2023-03-06T23:23:01.806Z,485.00
2023-03-06T23:27:01.726Z,487.00
2023-03-06T23:31:01.756Z,489.00
2023-03-06T23:35:01.958Z,490.00
2023-03-06T23:39:02.114Z,484.00
2023-03-06T23:43:02.325Z,486.00
2023-03-06T23:47:02.308Z,487.00
2023-03-06T23:51:02.328Z,484.00
2023-03-06T23:55:02.258Z,481.00
2023-03-06T23:59:02.184Z,485.00
